Nacogdoches, Texas
Current Conditions -  °F | °C
As of 11:55 AM on Friday 24 Oct 2014 (Local Time) from KOCH Reporting Station
Clear Clear  
Wind Chill: 70°   Ceiling: Unl
Heat Index: 70°   Visibility: 10mi
Dew Point: 50°   Wind: 3mph
Humidity: 49%   Direction: 110°ESE
Pressure: 30.2"   Gusts: NA
Location:  31.6°N, 94.65°W
Report Text: KOCH 241655Z AUTO 11003KT 10SM CLR 21/10 A3020 RMK AO1
Loading
Personal Weather Stations






























Interactive Weather Map
Tropical Storm Tracking
New forecast layout! Learn more

10-Day Weather Forecast

Advertisements
Track Severe Weather on mobile